createdAt,value
2022-09-04T00:00:44.781Z,28.90
2022-09-04T00:05:58.580Z,28.60
2022-09-04T00:11:22.660Z,28.40
2022-09-04T00:16:43.286Z,28.10
2022-09-04T00:21:55.094Z,28.10
2022-09-04T00:27:08.108Z,27.90
2022-09-04T00:32:40.413Z,27.80
2022-09-04T00:38:00.580Z,27.80
2022-09-04T00:43:34.113Z,27.70
2022-09-04T00:48:46.068Z,27.80
2022-09-04T00:54:13.420Z,27.90
2022-09-04T00:59:56.560Z,28.10
2022-09-04T01:05:40.225Z,28.30
2022-09-04T01:11:07.668Z,28.40
2022-09-04T01:16:23.552Z,28.60
2022-09-04T01:21:53.215Z,28.90
2022-09-04T01:27:20.003Z,29.30
2022-09-04T01:32:53.107Z,29.90
2022-09-04T01:38:04.502Z,30.50
2022-09-04T01:43:22.666Z,30.70
2022-09-04T01:49:08.975Z,30.90
2022-09-04T01:54:36.746Z,31.50
2022-09-04T02:00:00.884Z,31.70
2022-09-04T02:05:28.705Z,32.00
2022-09-04T02:11:00.068Z,32.60
2022-09-04T02:16:24.042Z,33.00
2022-09-04T02:21:46.507Z,32.10
2022-09-04T02:27:15.665Z,32.10
2022-09-04T02:32:44.181Z,32.10
2022-09-04T02:38:07.624Z,31.20
2022-09-04T02:43:41.064Z,30.40
2022-09-04T02:49:23.694Z,30.10
2022-09-04T02:55:06.366Z,30.00
2022-09-04T03:00:21.805Z,29.80
2022-09-04T03:05:43.765Z,29.70
2022-09-04T03:11:05.081Z,29.50
2022-09-04T03:16:36.281Z,29.40
2022-09-04T03:21:42.068Z,29.50
2022-09-04T03:26:58.182Z,29.60
2022-09-04T03:32:25.143Z,29.70
2022-09-04T03:37:45.939Z,29.70
2022-09-04T03:42:51.983Z,29.50
2022-09-04T03:48:10.167Z,29.60
2022-09-04T03:53:42.901Z,29.80
2022-09-04T03:59:10.627Z,29.70
2022-09-04T04:04:36.917Z,29.50
2022-09-04T04:09:48.238Z,29.20
2022-09-04T04:15:06.207Z,29.00
2022-09-04T04:20:23.556Z,28.60
2022-09-04T04:25:53.089Z,28.60
2022-09-04T04:31:17.100Z,28.40
2022-09-04T04:36:32.508Z,28.30
2022-09-04T04:42:07.550Z,28.30
2022-09-04T04:47:38.193Z,28.10
2022-09-04T04:52:52.464Z,28.20
2022-09-04T04:58:24.528Z,28.20
2022-09-04T05:03:36.523Z,28.00
2022-09-04T05:08:52.508Z,28.20
2022-09-04T05:14:31.543Z,28.40
2022-09-04T05:19:55.568Z,28.70
2022-09-04T05:25:26.168Z,28.90
2022-09-04T05:30:49.082Z,29.30
2022-09-04T05:36:08.804Z,29.20
2022-09-04T05:41:35.605Z,29.40
2022-09-04T05:46:57.838Z,29.70
2022-09-04T05:52:29.254Z,29.60
2022-09-04T05:57:59.278Z,29.50
2022-09-04T06:03:17.266Z,30.00
2022-09-04T06:08:38.217Z,31.10
2022-09-04T06:14:01.849Z,31.80
2022-09-04T06:19:15.215Z,32.30
2022-09-04T06:24:34.157Z,31.70
2022-09-04T06:30:03.884Z,31.10
2022-09-04T06:35:19.995Z,30.80
2022-09-04T06:40:45.569Z,30.60
2022-09-04T06:46:04.711Z,30.40
2022-09-04T06:51:42.007Z,31.60
2022-09-04T06:57:12.926Z,31.60
2022-09-04T07:02:39.687Z,33.90
2022-09-04T07:08:09.997Z,34.80
2022-09-04T07:13:37.310Z,35.50
2022-09-04T07:19:16.785Z,35.70
2022-09-04T07:24:31.072Z,35.20
2022-09-04T07:29:55.142Z,33.30
2022-09-04T07:35:38.636Z,32.60
2022-09-04T07:41:24.113Z,32.10
2022-09-04T07:46:48.497Z,31.90
2022-09-04T07:52:00.347Z,31.50
2022-09-04T07:57:22.275Z,31.30
2022-09-04T08:03:04.401Z,31.20
2022-09-04T08:08:27.831Z,31.00
2022-09-04T08:13:55.413Z,31.20
2022-09-04T08:19:42.581Z,30.90
2022-09-04T08:25:10.543Z,30.80
2022-09-04T08:30:20.116Z,30.70
2022-09-04T08:35:36.646Z,30.40
2022-09-04T08:41:00.520Z,30.10
2022-09-04T08:46:16.492Z,29.90
2022-09-04T08:51:35.676Z,29.60
2022-09-04T08:57:27.128Z,29.60
2022-09-04T09:03:09.205Z,29.20
2022-09-04T09:08:39.310Z,29.20
2022-09-04T09:14:02.995Z,28.90
2022-09-04T09:19:24.879Z,28.80
2022-09-04T09:24:57.709Z,28.60
2022-09-04T09:30:12.548Z,28.40
2022-09-04T09:35:49.249Z,28.60
2022-09-04T09:41:13.918Z,28.50
2022-09-04T09:46:46.856Z,28.60
2022-09-04T09:52:01.507Z,28.40
2022-09-04T09:57:29.671Z,28.30
2022-09-04T10:03:00.462Z,28.30
2022-09-04T10:08:36.117Z,28.20
2022-09-04T10:14:09.949Z,28.20
2022-09-04T10:19:38.976Z,28.20
2022-09-04T10:25:26.772Z,28.10
2022-09-04T10:30:58.937Z,28.00
2022-09-04T10:36:29.360Z,28.00
2022-09-04T10:41:56.645Z,27.90
2022-09-04T10:47:20.449Z,27.80
2022-09-04T10:52:50.982Z,27.80
2022-09-04T10:58:20.611Z,27.60
2022-09-04T11:03:51.997Z,27.50
2022-09-04T11:09:02.194Z,27.50
2022-09-04T11:14:22.722Z,27.40
2022-09-04T11:19:37.567Z,27.40
2022-09-04T11:24:51.932Z,27.10
2022-09-04T11:30:14.750Z,27.30
2022-09-04T11:35:36.151Z,27.50
2022-09-04T11:40:47.751Z,27.40
2022-09-04T11:46:28.771Z,27.40
2022-09-04T11:52:01.652Z,27.50
2022-09-04T11:57:15.128Z,27.30
2022-09-04T12:02:54.807Z,27.40
2022-09-04T12:08:16.065Z,27.30
2022-09-04T12:13:58.886Z,27.50
2022-09-04T12:19:28.979Z,27.40
2022-09-04T12:24:58.318Z,27.60
2022-09-04T12:30:08.340Z,27.60
2022-09-04T12:35:23.313Z,27.50
2022-09-04T12:40:55.861Z,27.60
2022-09-04T12:46:04.178Z,27.60
2022-09-04T12:51:26.198Z,27.60
2022-09-04T12:56:49.122Z,27.50
2022-09-04T13:02:16.830Z,27.40
2022-09-04T13:07:30.087Z,27.50
2022-09-04T13:13:01.439Z,27.40
2022-09-04T13:18:28.243Z,27.30
2022-09-04T13:23:58.648Z,27.40
2022-09-04T13:29:18.492Z,27.50
2022-09-04T13:34:41.351Z,27.50
2022-09-04T13:40:23.542Z,27.40
2022-09-04T13:46:00.859Z,27.50
2022-09-04T13:51:13.987Z,27.50
2022-09-04T13:56:44.460Z,27.50
2022-09-04T14:01:56.595Z,27.60
2022-09-04T14:07:08.656Z,27.60
2022-09-04T14:12:53.870Z,27.60
2022-09-04T14:18:15.551Z,27.60
2022-09-04T14:23:24.351Z,27.60
2022-09-04T14:29:04.311Z,27.50
2022-09-04T14:34:26.736Z,27.50
2022-09-04T14:39:35.168Z,27.40
2022-09-04T14:45:11.359Z,27.40
2022-09-04T14:50:19.342Z,27.50
2022-09-04T14:55:32.080Z,27.50
2022-09-04T15:01:10.008Z,27.60
2022-09-04T15:06:22.629Z,27.60
2022-09-04T15:11:36.386Z,27.60
2022-09-04T15:16:52.316Z,27.60
2022-09-04T15:22:07.868Z,27.60
2022-09-04T15:27:43.439Z,27.60
2022-09-04T15:32:51.029Z,27.60
2022-09-04T15:38:27.249Z,27.60
2022-09-04T15:44:01.521Z,27.60
2022-09-04T15:49:18.517Z,27.50
2022-09-04T15:54:41.630Z,27.60
2022-09-04T16:00:10.322Z,27.50
2022-09-04T16:05:26.136Z,27.40
2022-09-04T16:10:54.973Z,27.40
2022-09-04T16:16:25.469Z,27.40
2022-09-04T16:21:52.771Z,27.40
2022-09-04T16:26:58.600Z,27.40
2022-09-04T16:32:07.511Z,27.50
2022-09-04T16:37:36.242Z,27.60
2022-09-04T16:42:56.704Z,27.50
2022-09-04T16:48:34.720Z,27.60
2022-09-04T16:53:52.934Z,27.50
2022-09-04T16:59:20.124Z,27.50
2022-09-04T17:04:45.648Z,27.40
2022-09-04T17:10:31.446Z,27.40
2022-09-04T17:16:09.134Z,27.40
2022-09-04T17:27:41.864Z,27.50
2022-09-04T17:29:16.026Z,27.40
2022-09-04T17:40:33.634Z,27.40
2022-09-04T17:40:50.011Z,27.40
2022-09-04T17:45:08.531Z,27.40
2022-09-04T17:50:15.513Z,27.30
2022-09-04T17:55:22.689Z,27.30
2022-09-04T18:00:40.336Z,27.30
2022-09-04T18:05:53.286Z,27.20
2022-09-04T18:11:03.526Z,27.20
2022-09-04T18:16:36.531Z,27.20
2022-09-04T18:22:09.662Z,27.20
2022-09-04T18:27:30.227Z,27.20
2022-09-04T18:37:12.372Z,27.10
2022-09-04T18:38:34.593Z,27.10
2022-09-04T18:50:21.023Z,27.10
2022-09-04T18:50:32.527Z,27.10
2022-09-04T18:54:49.799Z,27.10
2022-09-04T19:00:12.332Z,27.10
2022-09-04T19:05:20.480Z,27.10
2022-09-04T19:10:33.156Z,27.10
2022-09-04T19:16:06.129Z,27.10
2022-09-04T19:21:14.529Z,27.10
2022-09-04T19:26:46.299Z,27.20
2022-09-04T19:32:13.061Z,27.10
2022-09-04T19:41:42.986Z,27.10
2022-09-04T19:46:26.083Z,27.10
2022-09-04T19:51:46.448Z,27.00
2022-09-04T19:55:23.134Z,27.10
2022-09-04T20:00:43.239Z,27.10
2022-09-04T20:06:21.154Z,27.10
2022-09-04T20:11:48.048Z,27.00
2022-09-04T20:16:59.787Z,26.90
2022-09-04T20:22:28.349Z,26.80
2022-09-04T20:27:45.427Z,26.90
2022-09-04T20:33:21.402Z,26.80
2022-09-04T20:38:35.297Z,26.70
2022-09-04T20:43:52.651Z,26.60
2022-09-04T20:52:54.738Z,26.70
2022-09-04T20:55:33.689Z,26.70
2022-09-04T21:03:23.361Z,26.80
2022-09-04T21:06:36.403Z,26.80
2022-09-04T21:11:53.861Z,26.70
2022-09-04T21:17:35.042Z,26.70
2022-09-04T21:23:26.243Z,26.60
2022-09-04T21:28:53.386Z,26.60
2022-09-04T21:34:26.637Z,26.60
2022-09-04T21:40:50.390Z,26.60
2022-09-04T21:46:13.299Z,26.60
2022-09-04T21:51:30.485Z,26.60
2022-09-04T22:02:30.210Z,26.60
2022-09-04T22:02:54.315Z,26.60
2022-09-04T22:13:27.142Z,26.60
2022-09-04T22:14:09.168Z,26.60
2022-09-04T22:19:17.215Z,26.70
2022-09-04T22:24:52.393Z,26.70
2022-09-04T22:30:08.965Z,26.70
2022-09-04T22:35:35.617Z,26.60
2022-09-04T22:40:59.695Z,26.60
2022-09-04T22:46:30.363Z,26.50
2022-09-04T22:52:13.285Z,26.60
2022-09-04T22:57:45.022Z,26.70
2022-09-04T23:03:15.069Z,26.70
2022-09-04T23:13:53.767Z,26.80
2022-09-04T23:14:22.283Z,26.70
2022-09-04T23:26:31.518Z,26.70
2022-09-04T23:26:46.820Z,26.70
2022-09-04T23:31:10.589Z,26.70
2022-09-04T23:36:35.522Z,26.70
2022-09-04T23:42:04.731Z,26.70
2022-09-04T23:47:46.899Z,26.80
2022-09-04T23:52:48.806Z,26.90
2022-09-04T23:58:33.459Z,26.90
